Time;durP1;ratioP1;P1;durP2;ratioP2;P2;SDS_P1;SDS_P2;PMS_P1;PMS_P2;Temp;Humidity;BMP_temperature;BMP_pressure;BME280_temperature;BME280_humidity;BME280_pressure;Samples;Min_cycle;Max_cycle;Signal;HPM_P1;HPM_P2
2022/07/07 00:00:35;;;;;;;2.83;2.20;;;15.00;99.90;;;;;;5040016;28;20270;-88
2022/07/07 00:03:01;;;;;;;3.77;2.37;;;15.00;99.90;;;;;;5056332;28;20187;-88
2022/07/07 00:05:27;;;;;;;4.10;2.10;;;15.00;99.90;;;;;;5039675;28;20417;-88
2022/07/07 00:07:52;;;;;;;3.43;1.90;;;15.00;99.90;;;;;;5039818;28;20170;-88
2022/07/07 00:10:41;;;;;;;3.07;2.10;;;15.00;99.90;;;;;;5035991;28;20190;-89
2022/07/07 00:13:07;;;;;;;4.03;2.40;;;15.00;99.90;;;;;;5036287;28;20185;-89
2022/07/07 00:15:33;;;;;;;4.33;2.20;;;15.10;99.90;;;;;;5036399;28;20178;-90
2022/07/07 00:17:58;;;;;;;2.13;1.93;;;15.00;99.90;;;;;;5036654;28;20182;-89
2022/07/07 00:20:24;;;;;;;3.40;2.37;;;15.00;99.90;;;;;;5036141;28;20202;-89
2022/07/07 00:22:51;;;;;;;3.40;2.17;;;15.00;99.90;;;;;;5020087;28;20177;-89
2022/07/07 00:25:17;;;;;;;2.63;2.37;;;14.90;99.90;;;;;;5019477;28;20213;-89
2022/07/07 00:27:43;;;;;;;3.87;2.60;;;14.90;99.90;;;;;;5020048;28;20264;-89
2022/07/07 00:30:09;;;;;;;3.43;2.43;;;14.80;99.90;;;;;;5018975;28;20205;-90
2022/07/07 00:32:35;;;;;;;2.40;2.20;;;14.70;99.90;;;;;;5019553;28;20232;-88
2022/07/07 00:35:00;;;;;;;2.30;2.10;;;14.70;99.90;;;;;;5019252;28;20182;-89
2022/07/07 00:37:26;;;;;;;4.17;2.10;;;14.60;99.90;;;;;;5019753;28;20284;-89
2022/07/07 00:39:52;;;;;;;5.27;2.20;;;14.50;99.90;;;;;;5019257;28;20180;-89
2022/07/07 00:42:18;;;;;;;3.03;2.00;;;14.40;99.90;;;;;;5020308;28;20199;-88
2022/07/07 00:44:44;;;;;;;2.83;2.20;;;14.30;99.90;;;;;;5038967;28;20201;-88
2022/07/07 00:47:11;;;;;;;2.10;1.90;;;14.30;99.90;;;;;;5039000;28;20193;-89
2022/07/07 00:53:01;;;;;;;3.27;2.20;;;14.20;99.90;;;;;;5055689;28;20256;-89
2022/07/07 00:55:27;;;;;;;3.80;2.47;;;14.20;99.90;;;;;;5039092;28;20264;-90
2022/07/07 00:57:52;;;;;;;3.70;2.20;;;14.10;99.90;;;;;;5039059;28;20169;-89
2022/07/07 01:00:18;;;;;;;2.60;2.20;;;14.00;99.90;;;;;;5039366;28;20189;-89
2022/07/07 01:02:44;;;;;;;4.43;2.40;;;13.90;99.90;;;;;;5039301;28;20213;-89
2022/07/07 01:05:10;;;;;;;3.47;2.10;;;13.80;99.90;;;;;;5038565;28;20208;-89
2022/07/07 01:07:37;;;;;;;4.23;2.33;;;13.70;99.90;;;;;;5038790;28;20265;-89
2022/07/07 01:10:05;;;;;;;2.43;2.17;;;13.70;99.90;;;;;;5038701;28;20199;-89
2022/07/07 01:12:41;;;;;;;3.07;2.50;;;13.70;99.90;;;;;;5038856;28;20267;-89
2022/07/07 01:15:09;;;;;;;6.53;2.50;;;13.70;99.90;;;;;;5038707;28;20188;-89
2022/07/07 01:17:39;;;;;;;2.80;2.30;;;13.80;99.90;;;;;;5039017;28;20192;-89
2022/07/07 01:20:07;;;;;;;2.77;2.40;;;13.80;99.90;;;;;;5038538;28;20195;-89
2022/07/07 01:22:35;;;;;;;3.33;2.27;;;13.90;99.90;;;;;;5037687;28;20177;-89
2022/07/07 01:25:01;;;;;;;4.57;2.53;;;13.90;99.90;;;;;;5035096;28;20197;-88
2022/07/07 01:27:27;;;;;;;2.93;2.53;;;14.00;99.90;;;;;;5024259;28;20363;-88
2022/07/07 01:29:56;;;;;;;3.57;2.60;;;14.00;99.90;;;;;;5038579;28;20172;-88
2022/07/07 01:32:23;;;;;;;2.97;2.60;;;14.10;99.90;;;;;;5038308;28;20180;-88
2022/07/07 01:34:49;;;;;;;4.00;2.30;;;14.10;99.90;;;;;;5038478;28;20169;-87
2022/07/07 01:37:17;;;;;;;4.03;2.73;;;14.20;99.90;;;;;;5038203;28;20200;-87
2022/07/07 01:39:43;;;;;;;4.63;2.90;;;14.30;99.90;;;;;;5038362;28;20209;-88
2022/07/07 01:42:09;;;;;;;4.03;2.50;;;14.30;99.90;;;;;;5038440;28;20216;-89
2022/07/07 01:44:39;;;;;;;6.97;2.90;;;14.40;99.90;;;;;;5034706;28;20600;-89
2022/07/07 01:47:05;;;;;;;3.00;2.60;;;14.40;99.90;;;;;;5018349;28;20181;-88
2022/07/07 01:49:33;;;;;;;3.37;2.80;;;14.40;99.90;;;;;;5018569;28;20272;-88
2022/07/07 01:51:59;;;;;;;3.77;2.70;;;14.40;99.90;;;;;;5018706;28;20247;-88
2022/07/07 01:54:27;;;;;;;5.87;2.90;;;14.40;99.90;;;;;;5027960;28;20193;-87
2022/07/07 01:56:53;;;;;;;3.57;2.90;;;14.50;99.90;;;;;;5035007;28;20630;-87
2022/07/07 01:59:19;;;;;;;5.27;3.00;;;14.50;99.90;;;;;;5034837;28;20206;-87
2022/07/07 02:01:45;;;;;;;3.10;2.80;;;14.50;99.90;;;;;;5035080;28;20283;-87
2022/07/07 02:04:10;;;;;;;3.33;2.90;;;14.50;99.90;;;;;;5034318;28;20265;-87
2022/07/07 02:06:38;;;;;;;5.40;3.33;;;14.60;99.90;;;;;;5038148;28;20223;-86
2022/07/07 02:09:05;;;;;;;3.40;2.50;;;14.60;99.90;;;;;;5038520;28;20177;-88
2022/07/07 02:11:30;;;;;;;6.03;2.47;;;14.60;99.90;;;;;;5038491;28;20256;-88
2022/07/07 02:13:56;;;;;;;4.40;2.90;;;14.60;99.90;;;;;;5038256;28;20196;-88
2022/07/07 02:16:24;;;;;;;2.73;2.53;;;14.60;99.90;;;;;;5038039;28;20259;-88
2022/07/07 02:18:54;;;;;;;5.70;2.70;;;14.60;99.90;;;;;;5044824;28;20184;-88
2022/07/07 02:21:21;;;;;;;4.30;2.87;;;14.60;99.90;;;;;;5038286;28;20285;-87
2022/07/07 02:23:48;;;;;;;3.73;2.73;;;14.60;99.90;;;;;;5037964;28;20184;-88
2022/07/07 02:26:14;;;;;;;4.07;2.80;;;14.60;99.90;;;;;;5038241;28;20213;-88
2022/07/07 02:28:41;;;;;;;3.50;2.60;;;14.60;99.90;;;;;;5054700;28;20180;-88
2022/07/07 02:31:08;;;;;;;4.20;2.70;;;14.50;99.90;;;;;;5055011;28;20197;-89
2022/07/07 02:33:34;;;;;;;3.90;2.90;;;14.50;99.90;;;;;;5056756;28;20197;-89
2022/07/07 02:36:01;;;;;;;5.97;2.83;;;14.40;99.90;;;;;;5041899;28;20181;-89
2022/07/07 02:38:27;;;;;;;3.97;2.70;;;14.40;99.90;;;;;;5041608;28;20184;-89
2022/07/07 02:40:53;;;;;;;3.70;2.50;;;14.40;99.90;;;;;;5041637;28;20205;-88
2022/07/07 02:43:19;;;;;;;4.63;2.87;;;14.30;99.90;;;;;;5041269;28;20211;-88
2022/07/07 02:45:47;;;;;;;4.00;2.83;;;14.20;99.90;;;;;;5041677;28;20197;-89
2022/07/07 02:48:16;;;;;;;4.70;2.80;;;14.20;99.90;;;;;;5058005;28;20177;-88
2022/07/07 02:50:42;;;;;;;4.93;2.60;;;14.20;99.90;;;;;;5041503;28;20204;-88
2022/07/07 02:53:10;;;;;;;2.93;2.67;;;14.20;99.90;;;;;;5041547;28;20181;-88
2022/07/07 02:55:36;;;;;;;5.07;2.80;;;14.10;99.90;;;;;;5041148;28;20181;-89
2022/07/07 02:58:04;;;;;;;3.60;2.50;;;14.10;99.90;;;;;;5041582;28;20260;-89
2022/07/07 03:00:36;;;;;;;3.93;2.70;;;14.10;99.90;;;;;;5041435;28;20203;-89
2022/07/07 03:03:04;;;;;;;4.17;2.60;;;14.10;99.90;;;;;;5058094;28;20581;-89
2022/07/07 03:05:31;;;;;;;3.27;2.43;;;14.00;99.90;;;;;;5057460;28;20207;-89
2022/07/07 03:07:57;;;;;;;3.77;2.90;;;14.00;99.90;;;;;;5041005;28;20181;-89
2022/07/07 03:10:24;;;;;;;4.33;3.07;;;14.10;99.90;;;;;;5057746;28;20199;-88
2022/07/07 03:12:49;;;;;;;4.07;3.10;;;14.10;99.90;;;;;;5040635;28;20187;-88
2022/07/07 03:15:15;;;;;;;3.00;2.70;;;14.10;99.90;;;;;;5040485;28;20188;-88
2022/07/07 03:17:46;;;;;;;4.50;3.00;;;14.20;99.90;;;;;;5041213;28;20181;-89
2022/07/07 03:20:13;;;;;;;3.20;2.83;;;14.30;99.90;;;;;;5040620;28;20197;-89
2022/07/07 03:22:40;;;;;;;3.67;2.70;;;14.40;99.90;;;;;;5037018;28;20180;-89
2022/07/07 03:25:07;;;;;;;3.27;2.90;;;14.40;99.90;;;;;;5036070;28;20689;-88
2022/07/07 03:27:33;;;;;;;3.00;2.73;;;14.40;99.90;;;;;;5036027;28;20181;-89
2022/07/07 03:29:59;;;;;;;3.67;2.80;;;14.40;99.90;;;;;;5036188;28;20177;-89
2022/07/07 03:32:25;;;;;;;3.40;2.30;;;14.40;99.90;;;;;;5051681;28;20185;-89
2022/07/07 03:34:51;;;;;;;3.30;2.87;;;14.40;99.90;;;;;;5035018;28;20231;-89
2022/07/07 03:37:17;;;;;;;3.67;2.83;;;14.40;99.90;;;;;;5053000;28;20188;-89
2022/07/07 03:39:43;;;;;;;6.87;3.20;;;14.40;99.90;;;;;;5036142;28;20209;-89
2022/07/07 03:42:09;;;;;;;3.20;2.90;;;14.40;99.90;;;;;;5052516;28;20194;-88
2022/07/07 03:44:35;;;;;;;4.07;2.97;;;14.40;99.90;;;;;;5033485;28;20209;-88
2022/07/07 03:47:16;;;;;;;3.47;2.37;;;14.40;99.90;;;;;;5018541;28;20185;-88
2022/07/07 03:49:49;;;;;;;5.97;3.27;;;14.30;99.90;;;;;;5019122;28;20193;-88
2022/07/07 03:52:15;;;;;;;3.83;2.63;;;14.20;99.90;;;;;;5019055;28;20177;-87
2022/07/07 03:54:40;;;;;;;5.83;2.83;;;14.20;99.90;;;;;;5052280;28;20185;-88
2022/07/07 03:57:06;;;;;;;3.30;2.90;;;14.10;99.90;;;;;;5023598;28;20270;-88
2022/07/07 03:59:32;;;;;;;5.10;2.90;;;14.10;99.90;;;;;;5039086;28;20183;-88
2022/07/07 04:02:03;;;;;;;3.73;3.00;;;14.00;99.90;;;;;;5038626;28;20260;-87
2022/07/07 04:04:29;;;;;;;3.30;2.87;;;14.00;99.90;;;;;;5038911;28;20187;-88
2022/07/07 04:06:55;;;;;;;3.37;2.90;;;13.90;99.90;;;;;;5038664;28;20177;-88
2022/07/07 04:09:21;;;;;;;4.07;2.30;;;13.90;99.90;;;;;;5039031;28;20172;-87
2022/07/07 04:11:48;;;;;;;2.83;2.53;;;14.00;99.90;;;;;;5037920;28;20204;-87
2022/07/07 04:14:15;;;;;;;4.93;3.20;;;14.00;99.90;;;;;;5055483;28;20173;-88
2022/07/07 04:16:41;;;;;;;3.47;2.83;;;14.00;99.90;;;;;;5055193;28;20263;-88
2022/07/07 04:19:17;;;;;;;4.20;2.83;;;14.00;99.90;;;;;;5055261;28;20184;-87
2022/07/07 04:21:49;;;;;;;2.77;2.47;;;14.10;99.90;;;;;;5055205;28;20210;-88
2022/07/07 04:24:15;;;;;;;3.07;2.53;;;14.10;99.90;;;;;;4881528;28;4478077;-87
2022/07/07 04:26:41;;;;;;;5.10;2.67;;;14.10;99.90;;;;;;5055712;28;20173;-88
2022/07/07 04:29:07;;;;;;;4.73;2.43;;;14.20;99.90;;;;;;5038731;28;20246;-88
2022/07/07 04:31:33;;;;;;;3.83;2.70;;;14.20;99.90;;;;;;5055226;28;20236;-88
2022/07/07 04:33:59;;;;;;;3.10;2.70;;;14.20;99.90;;;;;;5039420;28;20180;-87
2022/07/07 04:36:24;;;;;;;5.50;2.80;;;14.10;99.90;;;;;;5038775;28;20193;-88
2022/07/07 04:38:50;;;;;;;3.77;2.60;;;14.20;99.90;;;;;;5039081;28;20179;-88
2022/07/07 04:41:16;;;;;;;3.17;2.80;;;14.20;99.90;;;;;;5039206;28;20250;-88
2022/07/07 04:43:42;;;;;;;2.53;2.33;;;14.30;99.90;;;;;;5038962;28;20177;-88
2022/07/07 04:46:08;;;;;;;5.77;3.00;;;14.30;99.90;;;;;;5038905;28;20218;-88
2022/07/07 04:48:45;;;;;;;3.53;2.63;;;14.30;99.90;;;;;;5038797;28;20184;-88
2022/07/07 04:51:11;;;;;;;2.97;2.33;;;14.30;99.90;;;;;;5047594;28;20234;-88
2022/07/07 04:53:37;;;;;;;5.40;2.40;;;14.30;99.90;;;;;;5055031;28;20214;-88
2022/07/07 04:56:11;;;;;;;3.37;2.53;;;14.30;99.90;;;;;;5040413;28;20212;-88
2022/07/07 04:58:36;;;;;;;3.00;2.73;;;14.30;99.90;;;;;;5056000;28;20305;-88
2022/07/07 05:01:24;;;;;;;3.77;2.77;;;14.30;99.90;;;;;;5038511;28;20287;-88
2022/07/07 05:04:15;;;;;;;4.60;2.87;;;14.30;99.90;;;;;;5038553;28;20184;-89
2022/07/07 05:06:41;;;;;;;3.33;2.73;;;14.20;99.90;;;;;;5022813;28;20192;-92
2022/07/07 05:09:07;;;;;;;4.10;2.93;;;14.10;99.90;;;;;;5039034;28;20169;-92
2022/07/07 05:11:33;;;;;;;4.37;3.00;;;14.10;99.90;;;;;;5059021;28;20291;-92
2022/07/07 05:13:59;;;;;;;4.57;3.30;;;14.00;99.90;;;;;;5062168;28;20220;-93
2022/07/07 05:16:25;;;;;;;4.23;3.07;;;14.00;99.90;;;;;;5062465;28;20193;-92
2022/07/07 05:18:50;;;;;;;3.57;3.27;;;14.00;99.90;;;;;;5062578;28;20253;-94
2022/07/07 05:21:16;;;;;;;4.43;2.80;;;14.10;99.90;;;;;;5062086;28;20188;-94
2022/07/07 05:23:42;;;;;;;5.60;2.97;;;14.20;99.90;;;;;;5062714;28;20190;-93
2022/07/07 05:26:08;;;;;;;5.03;3.07;;;14.30;99.90;;;;;;5079328;28;20212;-92
2022/07/07 05:28:36;;;;;;;4.90;2.50;;;14.50;99.90;;;;;;5063122;28;20191;-92
2022/07/07 05:31:02;;;;;;;4.37;2.40;;;14.50;99.90;;;;;;5062820;28;20185;-94
2022/07/07 05:33:28;;;;;;;3.67;2.80;;;14.60;99.90;;;;;;5062493;28;20263;-92
2022/07/07 05:35:54;;;;;;;3.37;2.50;;;14.60;99.90;;;;;;5062929;28;20172;-93
2022/07/07 05:38:20;;;;;;;3.77;3.03;;;14.70;99.90;;;;;;5053347;23;20229;-35
2022/07/07 05:40:46;;;;;;;3.07;2.73;;;14.80;99.90;;;;;;5032371;28;20209;-33
2022/07/07 05:43:12;;;;;;;2.83;2.37;;;14.80;99.90;;;;;;5032067;28;20182;-37
2022/07/07 05:45:37;;;;;;;3.63;2.60;;;14.80;99.90;;;;;;5032255;28;20304;-37
2022/07/07 05:48:04;;;;;;;3.23;2.93;;;14.90;99.90;;;;;;5050044;28;20181;-37
2022/07/07 05:50:30;;;;;;;3.80;2.70;;;14.80;99.90;;;;;;5012343;28;20206;-34
2022/07/07 05:52:55;;;;;;;3.80;2.50;;;14.90;99.90;;;;;;5030658;28;20453;-32
2022/07/07 05:55:21;;;;;;;3.07;2.50;;;15.00;99.90;;;;;;5013134;28;20186;-34
2022/07/07 05:57:47;;;;;;;4.90;2.50;;;15.10;99.90;;;;;;5018225;28;20239;-32
2022/07/07 06:00:13;;;;;;;5.53;2.50;;;15.10;99.90;;;;;;5033196;28;20175;-32
2022/07/07 06:02:39;;;;;;;3.33;2.70;;;15.20;99.90;;;;;;5031958;28;20232;-35
2022/07/07 06:05:05;;;;;;;5.53;2.50;;;15.30;99.90;;;;;;5031894;28;20189;-34
2022/07/07 06:07:31;;;;;;;2.97;2.47;;;15.50;99.90;;;;;;5030935;28;20265;-34
2022/07/07 06:09:57;;;;;;;3.20;2.60;;;15.60;99.90;;;;;;5019260;28;20273;-35
2022/07/07 06:12:23;;;;;;;3.93;2.63;;;15.80;99.90;;;;;;5024932;28;20213;-36
2022/07/07 06:14:49;;;;;;;5.10;2.37;;;15.90;99.90;;;;;;5053549;28;20182;-35
2022/07/07 06:17:15;;;;;;;3.33;2.20;;;16.00;99.90;;;;;;5019364;28;20185;-39
2022/07/07 06:19:41;;;;;;;4.70;2.37;;;16.20;99.90;;;;;;5019485;28;20182;-34
2022/07/07 06:22:06;;;;;;;4.33;2.43;;;16.30;99.90;;;;;;5034929;28;20205;-35
2022/07/07 06:24:32;;;;;;;3.60;2.63;;;16.40;99.90;;;;;;5024871;28;20185;-38
2022/07/07 06:26:58;;;;;;;4.57;2.53;;;16.50;99.90;;;;;;5016782;28;20174;-33
2022/07/07 06:29:24;;;;;;;3.93;2.47;;;16.70;99.90;;;;;;5053180;28;20224;-32
2022/07/07 06:31:49;;;;;;;4.20;2.20;;;16.90;99.90;;;;;;5052908;28;20202;-35
2022/07/07 06:34:15;;;;;;;4.10;3.20;;;17.10;99.90;;;;;;5019567;28;20189;-35
2022/07/07 06:36:41;;;;;;;6.37;2.03;;;17.20;99.90;;;;;;5053219;28;20178;-37
2022/07/07 06:39:07;;;;;;;3.83;2.00;;;17.30;99.90;;;;;;5018479;28;20265;-37
2022/07/07 06:41:37;;;;;;;2.80;2.20;;;17.50;99.90;;;;;;5035627;28;20213;-33
2022/07/07 06:44:04;;;;;;;5.37;2.03;;;17.60;99.90;;;;;;5035204;28;20194;-35
2022/07/07 06:46:30;;;;;;;4.85;2.38;;;17.80;99.90;;;;;;5017930;28;20224;-35
2022/07/07 06:48:57;;;;;;;5.55;2.50;;;17.80;99.90;;;;;;5053283;28;20238;-36
2022/07/07 06:51:23;;;;;;;2.33;2.13;;;17.90;99.90;;;;;;5035096;28;20206;-32
2022/07/07 06:53:49;;;;;;;4.45;2.15;;;17.90;99.90;;;;;;5034927;28;20181;-35
2022/07/07 06:56:15;;;;;;;6.55;2.50;;;18.10;99.90;;;;;;5053159;28;20170;-36
2022/07/07 06:58:41;;;;;;;3.47;2.53;;;18.20;99.90;;;;;;5035227;28;20261;-35
2022/07/07 07:01:08;;;;;;;8.50;2.17;;;18.40;99.90;;;;;;5053011;28;20205;-37
2022/07/07 07:03:34;;;;;;;3.08;1.90;;;18.60;99.90;;;;;;5018488;28;20188;-38
2022/07/07 07:05:59;;;;;;;3.78;2.10;;;18.80;99.90;;;;;;5018291;28;20213;-37
2022/07/07 07:08:25;;;;;;;4.82;2.10;;;19.00;99.90;;;;;;5035143;28;20182;-35
2022/07/07 07:10:51;;;;;;;3.03;1.83;;;19.20;99.90;;;;;;5033864;28;20227;-38
2022/07/07 07:13:17;;;;;;;3.50;2.30;;;19.40;99.90;;;;;;5018409;28;20177;-36
2022/07/07 07:15:44;;;;;;;3.40;1.80;;;19.50;99.90;;;;;;5019069;28;20245;-38
2022/07/07 07:18:10;;;;;;;3.92;2.00;;;19.70;99.90;;;;;;5034694;28;20189;-35
2022/07/07 07:20:36;;;;;;;5.03;2.38;;;19.70;99.90;;;;;;5014282;28;20202;-37
2022/07/07 07:23:01;;;;;;;4.60;2.05;;;19.60;99.90;;;;;;5034525;28;20174;-37
2022/07/07 07:25:27;;;;;;;3.58;2.20;;;19.60;99.90;;;;;;5017646;28;20657;-35
2022/07/07 07:27:53;;;;;;;3.33;1.90;;;19.60;99.90;;;;;;5018543;28;20236;-34
2022/07/07 07:30:19;;;;;;;3.63;1.90;;;19.50;99.90;;;;;;5031673;28;20170;-38
2022/07/07 07:32:45;;;;;;;5.38;1.98;;;19.60;99.90;;;;;;5051373;28;20678;-34
2022/07/07 07:35:11;;;;;;;3.22;1.63;;;19.60;99.90;;;;;;5032609;28;20641;-37
2022/07/07 07:37:38;;;;;;;4.13;1.80;;;19.60;99.90;;;;;;5016561;28;20217;-36
2022/07/07 07:40:10;;;;;;;3.35;2.00;;;19.60;99.90;;;;;;5034126;28;20209;-33
2022/07/07 07:42:37;;;;;;;5.65;2.20;;;19.60;99.90;;;;;;5033745;28;20189;-35
2022/07/07 07:45:10;;;;;;;3.05;1.80;;;19.60;99.90;;;;;;5017170;28;20279;-34
2022/07/07 07:47:41;;;;;;;2.55;1.85;;;19.60;99.90;;;;;;5033418;28;20193;-35
2022/07/07 07:50:12;;;;;;;4.82;1.92;;;19.70;99.90;;;;;;5034119;28;20304;-37
2022/07/07 07:52:39;;;;;;;5.40;2.50;;;19.90;99.90;;;;;;5034410;28;20247;-37
2022/07/07 07:55:07;;;;;;;3.85;2.00;;;20.30;99.90;;;;;;5017338;28;20182;-35
2022/07/07 07:57:33;;;;;;;2.80;1.70;;;20.70;99.90;;;;;;5017523;28;20269;-35
2022/07/07 07:59:59;;;;;;;4.03;1.67;;;21.00;99.90;;;;;;5033760;28;20174;-39
2022/07/07 08:02:25;;;;;;;2.97;1.75;;;21.00;99.90;;;;;;5051702;28;20205;-32
2022/07/07 08:04:51;;;;;;;2.72;1.60;;;21.10;99.90;;;;;;5017199;28;20213;-32
2022/07/07 08:07:17;;;;;;;3.58;1.65;;;21.20;99.90;;;;;;5017224;28;20280;-38
2022/07/07 08:09:44;;;;;;;2.53;1.77;;;21.30;99.90;;;;;;5033663;28;20170;-35
2022/07/07 08:12:10;;;;;;;3.17;1.75;;;21.30;99.90;;;;;;5017190;28;20717;-38
2022/07/07 08:14:36;;;;;;;2.90;1.63;;;21.20;99.90;;;;;;5016711;28;20182;-36
2022/07/07 08:17:02;;;;;;;3.25;1.38;;;21.10;99.90;;;;;;5033899;28;20170;-38
2022/07/07 08:19:27;;;;;;;1.70;1.60;;;21.00;99.90;;;;;;5033779;28;20205;-35
2022/07/07 08:21:53;;;;;;;2.60;1.90;;;20.90;99.90;;;;;;5017082;28;20557;-37
2022/07/07 08:24:19;;;;;;;2.55;1.73;;;20.80;99.90;;;;;;5016921;28;20265;-37
2022/07/07 08:26:45;;;;;;;3.65;1.80;;;20.60;99.90;;;;;;5016885;28;20214;-36
2022/07/07 08:29:11;;;;;;;4.53;1.67;;;20.50;99.90;;;;;;5016342;28;20204;-34
2022/07/07 08:31:37;;;;;;;4.38;1.92;;;20.40;99.90;;;;;;5014702;28;20241;-37
2022/07/07 08:34:04;;;;;;;2.67;1.80;;;20.40;99.90;;;;;;5035819;28;20178;-36
2022/07/07 08:36:32;;;;;;;2.70;1.73;;;20.40;99.90;;;;;;5050738;28;20209;-32
2022/07/07 08:38:58;;;;;;;2.20;2.00;;;20.30;99.90;;;;;;5032580;28;20231;-33
2022/07/07 08:41:25;;;;;;;2.25;1.52;;;20.30;99.90;;;;;;5032905;28;20201;-34
2022/07/07 08:43:51;;;;;;;3.50;1.80;;;20.20;99.90;;;;;;5032802;28;20257;-34
2022/07/07 08:46:17;;;;;;;2.65;1.75;;;20.20;99.90;;;;;;5033141;28;20312;-36
2022/07/07 08:48:43;;;;;;;2.38;2.05;;;20.20;99.90;;;;;;5051151;28;20166;-37
2022/07/07 08:51:09;;;;;;;3.45;1.90;;;20.10;99.90;;;;;;5050993;28;20201;-35
2022/07/07 08:53:36;;;;;;;2.05;1.67;;;20.10;99.90;;;;;;5031925;28;20174;-35
2022/07/07 08:56:07;;;;;;;2.45;1.80;;;20.00;99.90;;;;;;5032650;28;20177;-39
2022/07/07 08:58:35;;;;;;;4.05;2.10;;;20.00;99.90;;;;;;5016369;28;20186;-36
2022/07/07 09:01:02;;;;;;;2.10;1.88;;;19.90;99.90;;;;;;5016378;28;20206;-35
2022/07/07 09:03:29;;;;;;;3.67;1.80;;;19.90;99.90;;;;;;5016557;28;20240;-38
2022/07/07 09:05:57;;;;;;;2.83;1.70;;;20.00;99.90;;;;;;5050609;28;20212;-38
2022/07/07 09:08:24;;;;;;;3.42;2.00;;;20.10;99.90;;;;;;5033048;28;20174;-37
2022/07/07 09:10:50;;;;;;;3.63;1.90;;;20.20;99.90;;;;;;5032618;28;20193;-34
2022/07/07 09:13:30;;;;;;;4.93;1.98;;;20.20;99.90;;;;;;5015737;28;20177;-32
2022/07/07 09:16:01;;;;;;;4.00;1.80;;;20.30;99.90;;;;;;5012871;28;20183;-32
2022/07/07 09:18:33;;;;;;;5.68;2.15;;;20.40;99.90;;;;;;5030878;28;20188;-36
2022/07/07 09:20:59;;;;;;;3.03;2.20;;;20.50;99.90;;;;;;5032316;28;20229;-32
2022/07/07 09:23:26;;;;;;;5.07;2.00;;;20.50;99.90;;;;;;5015783;28;20285;-37
2022/07/07 09:25:53;;;;;;;3.13;1.90;;;20.90;99.90;;;;;;5031453;28;20201;-36
2022/07/07 09:28:19;;;;;;;4.25;2.00;;;21.10;99.90;;;;;;5032850;28;20178;-35
2022/07/07 09:30:48;;;;;;;3.38;1.70;;;21.20;99.90;;;;;;5016014;28;20209;-37
2022/07/07 09:33:20;;;;;;;3.35;1.58;;;21.20;99.90;;;;;;5032378;28;20181;-35
2022/07/07 09:38:36;;;;;;;4.55;2.03;;;21.20;99.90;;;;;;5046891;28;20189;-35
2022/07/07 09:41:15;;;;;;;3.67;1.70;;;20.90;99.90;;;;;;5016453;28;20348;-38
2022/07/07 09:43:52;;;;;;;4.97;1.63;;;20.80;99.90;;;;;;5035261;28;20219;-32
2022/07/07 09:46:20;;;;;;;2.30;1.80;;;20.70;99.90;;;;;;5050880;28;20251;-37
2022/07/07 09:48:53;;;;;;;2.75;1.70;;;20.70;99.90;;;;;;5035623;28;20186;-33
2022/07/07 09:51:33;;;;;;;5.25;2.25;;;20.80;99.90;;;;;;5036383;28;20197;-35
2022/07/07 09:54:14;;;;;;;3.22;1.77;;;20.90;99.90;;;;;;5035036;28;20208;-35
2022/07/07 09:56:45;;;;;;;4.47;1.95;;;21.10;99.90;;;;;;5022616;28;20182;-37
2022/07/07 09:59:22;;;;;;;4.43;1.73;;;21.10;99.90;;;;;;5051263;28;20193;-34
2022/07/07 10:01:49;;;;;;;3.17;1.92;;;21.20;99.90;;;;;;5020020;28;20220;-36
2022/07/07 10:04:19;;;;;;;3.05;1.80;;;21.40;99.90;;;;;;5012021;28;20197;-38
2022/07/07 10:06:46;;;;;;;2.83;1.80;;;21.40;99.90;;;;;;5036119;28;20836;-36
2022/07/07 10:09:21;;;;;;;4.95;2.00;;;21.40;99.90;;;;;;5017514;28;20179;-37
2022/07/07 10:11:53;;;;;;;2.60;1.75;;;21.30;99.90;;;;;;5052156;28;20205;-36
2022/07/07 10:14:32;;;;;;;3.67;1.70;;;21.20;99.90;;;;;;5036091;28;20190;-37
2022/07/07 10:17:01;;;;;;;1.92;1.60;;;20.90;99.90;;;;;;5036027;28;20216;-35
2022/07/07 10:19:27;;;;;;;3.10;1.80;;;20.70;99.90;;;;;;5019373;28;20185;-36
2022/07/07 10:21:56;;;;;;;2.13;1.83;;;20.70;99.90;;;;;;5035348;28;20206;-38
2022/07/07 10:24:28;;;;;;;3.72;2.10;;;20.70;99.90;;;;;;5019270;28;20190;-34
2022/07/07 10:26:59;;;;;;;5.15;2.30;;;20.60;99.90;;;;;;5036039;28;20198;-35
2022/07/07 10:29:44;;;;;;;3.13;2.00;;;20.60;99.90;;;;;;5053752;28;20189;-33
2022/07/07 10:32:16;;;;;;;3.63;2.30;;;20.60;99.90;;;;;;5035467;28;20205;-38
2022/07/07 10:34:50;;;;;;;2.67;2.05;;;20.60;99.90;;;;;;5035560;28;20178;-35
2022/07/07 10:37:16;;;;;;;3.70;2.10;;;20.50;99.90;;;;;;5035661;28;20260;-39
2022/07/07 10:39:47;;;;;;;2.20;1.90;;;20.50;99.90;;;;;;5034843;28;20178;-37
2022/07/07 10:42:16;;;;;;;3.95;2.30;;;20.60;99.90;;;;;;5035175;28;20209;-38
2022/07/07 10:44:49;;;;;;;3.85;2.00;;;20.60;99.90;;;;;;5052890;28;20174;-33
2022/07/07 10:47:18;;;;;;;4.10;2.22;;;20.70;99.90;;;;;;5018665;28;20647;-36
2022/07/07 10:49:46;;;;;;;2.33;1.98;;;20.70;99.90;;;;;;5018578;28;20178;-37
2022/07/07 10:52:13;;;;;;;4.65;2.30;;;20.90;99.90;;;;;;5016831;28;20198;-35
2022/07/07 10:54:40;;;;;;;2.30;2.10;;;21.00;99.90;;;;;;5016639;28;20340;-38
2022/07/07 10:57:18;;;;;;;5.82;2.05;;;21.10;99.90;;;;;;5018080;28;20170;-34
2022/07/07 10:59:56;;;;;;;3.20;1.80;;;21.20;99.90;;;;;;5034848;28;20212;-35
2022/07/07 11:02:32;;;;;;;3.58;1.67;;;21.20;99.90;;;;;;5033449;28;20206;-37
2022/07/07 11:04:59;;;;;;;3.10;1.80;;;21.20;99.90;;;;;;5034709;28;20202;-37
2022/07/07 11:07:26;;;;;;;2.58;1.60;;;20.90;99.90;;;;;;5034963;28;20186;-39
2022/07/07 11:10:09;;;;;;;2.95;1.92;;;20.80;99.90;;;;;;5035153;28;20166;-35
2022/07/07 11:12:41;;;;;;;2.17;1.70;;;20.90;99.90;;;;;;5034954;28;20174;-36
2022/07/07 11:15:20;;;;;;;3.13;1.75;;;20.90;99.90;;;;;;5034217;28;20193;-33
2022/07/07 11:17:51;;;;;;;2.60;1.80;;;20.90;99.90;;;;;;5034746;28;20193;-35
2022/07/07 11:20:19;;;;;;;2.33;1.73;;;20.80;99.90;;;;;;5035928;28;20181;-35
2022/07/07 11:22:48;;;;;;;3.85;1.70;;;20.70;99.90;;;;;;5034502;28;20198;-38
2022/07/07 11:25:16;;;;;;;4.40;1.80;;;20.70;99.90;;;;;;5034471;28;20206;-37
2022/07/07 11:27:42;;;;;;;3.53;1.60;;;20.70;99.90;;;;;;5052541;28;20174;-35
2022/07/07 11:30:08;;;;;;;2.10;1.45;;;20.60;99.90;;;;;;5017569;28;20182;-35
2022/07/07 11:32:43;;;;;;;6.47;2.28;;;20.70;99.90;;;;;;5051696;28;20201;-35
2022/07/07 11:35:11;;;;;;;3.42;1.63;;;20.70;99.90;;;;;;5033517;28;20201;-34
2022/07/07 11:37:39;;;;;;;2.67;1.50;;;20.60;99.90;;;;;;5018013;28;20193;-35
2022/07/07 11:40:22;;;;;;;4.75;1.77;;;20.60;99.90;;;;;;5042369;28;20249;-32
2022/07/07 11:42:48;;;;;;;2.67;1.85;;;20.70;99.90;;;;;;5016098;28;20189;-38
2022/07/07 11:45:25;;;;;;;3.70;1.85;;;20.80;99.90;;;;;;5016613;28;20209;-38
2022/07/07 11:47:54;;;;;;;3.25;1.70;;;20.90;99.90;;;;;;5035530;28;20181;-38
2022/07/07 11:50:20;;;;;;;3.13;2.10;;;20.90;99.90;;;;;;5034024;28;20175;-38
2022/07/07 11:52:52;;;;;;;2.83;1.85;;;21.00;99.90;;;;;;5096024;23;20224;-36
2022/07/07 11:55:19;;;;;;;6.15;2.10;;;21.00;99.90;;;;;;5059466;28;20177;-37
2022/07/07 11:57:56;;;;;;;6.97;2.60;;;21.20;99.90;;;;;;5045615;28;20188;-37
2022/07/07 12:00:27;;;;;;;4.63;1.90;;;21.20;99.90;;;;;;5047834;28;20190;-37
2022/07/07 12:02:56;;;;;;;3.15;1.75;;;21.30;99.90;;;;;;5048150;28;20197;-36
2022/07/07 12:05:27;;;;;;;2.75;1.77;;;21.40;99.90;;;;;;5062809;28;20213;-37
2022/07/07 12:08:00;;;;;;;3.60;2.00;;;21.60;99.90;;;;;;5062349;28;20230;-37
2022/07/07 12:10:38;;;;;;;1.90;1.60;;;21.50;99.90;;;;;;5064692;28;20216;-36
2022/07/07 12:13:12;;;;;;;3.53;1.80;;;21.40;99.90;;;;;;5044085;28;20192;-37
2022/07/07 12:15:45;;;;;;;2.67;1.77;;;21.30;99.90;;;;;;5051143;28;20204;-37
2022/07/07 12:18:12;;;;;;;3.13;1.40;;;21.20;99.90;;;;;;5052695;28;20184;-38
2022/07/07 12:20:39;;;;;;;2.05;1.60;;;21.10;99.90;;;;;;5069128;28;20224;-37
2022/07/07 12:23:17;;;;;;;3.83;1.60;;;21.00;99.90;;;;;;5040394;28;20200;-37
2022/07/07 12:25:44;;;;;;;2.17;1.50;;;21.00;99.90;;;;;;5053443;28;20208;-37
2022/07/07 12:28:10;;;;;;;2.35;1.33;;;21.00;99.90;;;;;;5071298;28;20181;-36
2022/07/07 12:30:54;;;;;;;3.47;1.88;;;21.10;99.90;;;;;;5035633;28;20169;-37
2022/07/07 12:33:33;;;;;;;3.00;1.60;;;21.20;99.90;;;;;;5051452;28;20205;-36
2022/07/07 12:36:14;;;;;;;4.20;1.25;;;21.30;99.90;;;;;;5049009;28;20169;-37
2022/07/07 12:38:57;;;;;;;2.58;1.75;;;21.40;99.90;;;;;;5033779;28;20179;-37
2022/07/07 12:41:55;;;;;;;2.80;1.40;;;21.50;99.90;;;;;;5035346;28;20181;-37
2022/07/07 12:44:26;;;;;;;2.25;1.48;;;21.60;99.90;;;;;;5052465;28;20181;-37
2022/07/07 12:46:56;;;;;;;3.40;1.70;;;21.70;99.90;;;;;;5054226;28;20227;-36
2022/07/07 12:49:23;;;;;;;1.77;1.20;;;21.60;99.90;;;;;;5053114;28;20272;-37
2022/07/07 12:51:51;;;;;;;2.30;1.77;;;21.70;99.90;;;;;;5050349;28;20209;-36
2022/07/07 12:54:35;;;;;;;3.03;1.58;;;21.70;99.90;;;;;;5051154;28;20238;-36
2022/07/07 12:57:04;;;;;;;2.70;1.65;;;21.70;99.90;;;;;;5041413;28;20177;-36
2022/07/07 12:59:44;;;;;;;3.83;1.85;;;21.70;99.90;;;;;;5041569;28;20193;-36